createdAt,value
2017-10-31T00:01:58.380Z,3.30
2017-10-31T00:04:24.823Z,3.37
2017-10-31T00:06:51.974Z,3.30
2017-10-31T00:09:18.401Z,2.70
2017-10-31T00:11:44.835Z,3.40
2017-10-31T00:14:11.225Z,3.07
2017-10-31T00:16:37.601Z,3.10
2017-10-31T00:19:04.047Z,3.60
2017-10-31T00:21:30.472Z,3.10
2017-10-31T00:23:57.733Z,3.17
2017-10-31T00:26:24.232Z,3.00
2017-10-31T00:28:50.698Z,3.27
2017-10-31T00:31:17.062Z,3.23
2017-10-31T00:33:43.465Z,3.20
2017-10-31T00:36:09.907Z,3.40
2017-10-31T00:38:36.267Z,3.10
2017-10-31T00:41:03.493Z,2.90
2017-10-31T00:43:29.818Z,3.30
2017-10-31T00:45:56.253Z,3.60
2017-10-31T00:48:22.687Z,3.43
2017-10-31T00:50:49.125Z,3.40
2017-10-31T00:53:15.558Z,3.50
2017-10-31T00:55:41.999Z,3.40
2017-10-31T00:58:09.143Z,3.60
2017-10-31T01:00:35.514Z,3.60
2017-10-31T01:03:01.918Z,3.40
2017-10-31T01:05:28.284Z,3.57
2017-10-31T01:07:54.628Z,3.30
2017-10-31T01:10:21.094Z,3.37
2017-10-31T01:12:47.565Z,3.43
2017-10-31T01:15:14.809Z,3.47
2017-10-31T01:17:41.244Z,3.20
2017-10-31T01:20:07.675Z,3.57
2017-10-31T01:22:34.114Z,4.20
2017-10-31T01:25:00.548Z,4.00
2017-10-31T01:27:26.982Z,3.60
2017-10-31T01:29:53.408Z,3.53
2017-10-31T01:32:20.623Z,3.70
2017-10-31T01:34:47.105Z,4.10
2017-10-31T01:37:13.467Z,3.70
2017-10-31T01:39:39.975Z,3.87
2017-10-31T01:42:06.432Z,4.40
2017-10-31T01:44:32.836Z,3.70
2017-10-31T01:46:59.227Z,4.03
2017-10-31T01:49:26.422Z,3.90
2017-10-31T01:51:52.856Z,3.83
2017-10-31T01:54:19.223Z,4.27
2017-10-31T01:56:45.626Z,4.10
2017-10-31T01:59:12.058Z,3.80
2017-10-31T02:01:38.501Z,4.10
2017-10-31T02:04:04.928Z,3.60
2017-10-31T02:06:32.182Z,3.90
2017-10-31T02:08:58.617Z,4.20
2017-10-31T02:11:24.948Z,3.90
2017-10-31T02:13:51.383Z,4.40
2017-10-31T02:16:17.840Z,4.20
2017-10-31T02:18:44.253Z,3.83
2017-10-31T02:21:10.715Z,3.40
2017-10-31T02:23:37.766Z,3.50
2017-10-31T02:26:04.192Z,3.80
2017-10-31T02:28:30.606Z,3.90
2017-10-31T02:30:57.008Z,3.60
2017-10-31T02:33:23.475Z,3.50
2017-10-31T02:35:49.913Z,4.07
2017-10-31T02:38:16.345Z,4.10
2017-10-31T02:40:43.477Z,4.03
2017-10-31T02:43:09.926Z,3.77
2017-10-31T02:45:36.365Z,3.60
2017-10-31T02:48:02.736Z,4.30
2017-10-31T02:50:29.134Z,3.90
2017-10-31T02:52:55.573Z,3.60
2017-10-31T02:55:21.900Z,3.90
2017-10-31T02:57:49.154Z,4.13
2017-10-31T03:00:15.588Z,4.03
2017-10-31T03:02:42.032Z,4.00
2017-10-31T03:05:08.466Z,4.20
2017-10-31T03:07:34.892Z,4.23
2017-10-31T03:10:01.327Z,4.77
2017-10-31T03:12:27.757Z,3.80
2017-10-31T03:14:54.993Z,3.67
2017-10-31T03:17:21.450Z,3.77
2017-10-31T03:19:47.819Z,3.43
2017-10-31T03:22:14.331Z,3.60
2017-10-31T03:24:40.652Z,3.33
2017-10-31T03:27:07.095Z,3.80
2017-10-31T03:29:33.540Z,3.50
2017-10-31T03:32:00.681Z,3.90
2017-10-31T03:34:27.107Z,3.93
2017-10-31T03:36:53.552Z,3.90
2017-10-31T03:39:19.875Z,3.73
2017-10-31T03:41:46.318Z,3.70
2017-10-31T03:44:12.820Z,3.77
2017-10-31T03:46:39.310Z,4.20
2017-10-31T03:49:06.447Z,3.70
2017-10-31T03:51:32.876Z,4.40
2017-10-31T03:53:59.311Z,3.73
2017-10-31T03:56:25.756Z,3.70
2017-10-31T03:58:52.174Z,3.63
2017-10-31T04:01:18.606Z,3.30
2017-10-31T04:03:44.975Z,3.77
2017-10-31T04:06:12.193Z,3.80
2017-10-31T04:08:38.627Z,3.70
2017-10-31T04:11:05.066Z,3.80
2017-10-31T04:13:31.506Z,3.60
2017-10-31T04:15:57.933Z,3.73
2017-10-31T04:18:24.266Z,3.93
2017-10-31T04:20:50.720Z,3.73
2017-10-31T04:23:17.747Z,4.17
2017-10-31T04:25:44.147Z,3.90
2017-10-31T04:28:10.601Z,3.50
2017-10-31T04:30:37.058Z,4.20
2017-10-31T04:33:04.100Z,4.10
2017-10-31T04:35:30.536Z,4.17
2017-10-31T04:37:56.969Z,4.03
2017-10-31T04:40:24.111Z,3.60
2017-10-31T04:42:50.556Z,4.10
2017-10-31T04:45:16.991Z,3.60
2017-10-31T04:47:43.424Z,3.97
2017-10-31T04:50:09.861Z,3.73
2017-10-31T04:52:36.295Z,4.30
2017-10-31T04:55:02.743Z,3.67
2017-10-31T04:57:29.890Z,4.40
2017-10-31T04:59:56.430Z,4.20
2017-10-31T05:02:22.955Z,4.07
2017-10-31T05:04:49.389Z,3.60
2017-10-31T05:07:15.824Z,4.10
2017-10-31T05:09:42.260Z,3.50
2017-10-31T05:12:08.693Z,3.93
2017-10-31T05:14:35.791Z,4.00
2017-10-31T05:17:02.280Z,4.37
2017-10-31T05:19:28.608Z,4.20
2017-10-31T05:21:55.061Z,3.90
2017-10-31T05:24:21.481Z,3.70
2017-10-31T05:26:47.916Z,4.40
2017-10-31T05:29:14.359Z,4.40
2017-10-31T05:31:41.513Z,4.40
2017-10-31T05:34:07.835Z,3.90
2017-10-31T05:36:34.244Z,3.70
2017-10-31T05:39:00.713Z,4.40
2017-10-31T05:41:27.168Z,4.00
2017-10-31T05:43:53.675Z,3.70
2017-10-31T05:46:20.110Z,4.13
2017-10-31T05:48:47.236Z,3.70
2017-10-31T05:51:13.680Z,4.03
2017-10-31T05:53:40.133Z,3.43
2017-10-31T05:56:06.566Z,3.40
2017-10-31T05:58:32.917Z,3.40
2017-10-31T06:00:59.299Z,3.60
2017-10-31T06:03:25.973Z,3.60
2017-10-31T06:05:52.416Z,3.40
2017-10-31T06:08:18.843Z,3.70
2017-10-31T06:10:45.630Z,3.53
2017-10-31T06:13:12.471Z,3.60
2017-10-31T06:15:38.973Z,4.20
2017-10-31T06:18:05.410Z,2.90
2017-10-31T06:20:31.944Z,3.83
2017-10-31T06:22:58.372Z,3.60
2017-10-31T06:25:24.805Z,3.30
2017-10-31T06:27:51.886Z,3.30
2017-10-31T06:30:18.299Z,3.50
2017-10-31T06:32:44.728Z,3.93
2017-10-31T06:35:11.475Z,4.17
2017-10-31T06:37:37.911Z,3.77
2017-10-31T06:40:04.346Z,3.33
2017-10-31T06:42:30.976Z,3.80
2017-10-31T06:44:57.426Z,3.90
2017-10-31T06:47:23.847Z,3.97
2017-10-31T06:49:51.034Z,3.70
2017-10-31T06:52:17.537Z,3.70
2017-10-31T06:54:43.999Z,3.90
2017-10-31T06:57:10.421Z,3.77
2017-10-31T06:59:36.836Z,3.73
2017-10-31T07:02:03.207Z,3.20
2017-10-31T07:04:30.023Z,3.60
2017-10-31T07:06:56.460Z,3.67
2017-10-31T07:09:22.883Z,3.80
2017-10-31T07:11:49.729Z,3.73
2017-10-31T07:14:16.162Z,3.47
2017-10-31T07:16:42.619Z,3.73
2017-10-31T07:19:09.271Z,3.47
2017-10-31T07:21:35.773Z,4.10
2017-10-31T07:24:02.824Z,3.30
2017-10-31T07:26:29.264Z,2.60
2017-10-31T07:28:55.897Z,3.83
2017-10-31T07:31:22.442Z,4.00
2017-10-31T07:33:48.878Z,3.73
2017-10-31T07:36:15.281Z,3.03
2017-10-31T07:38:41.767Z,3.60
2017-10-31T07:41:08.374Z,3.20
2017-10-31T07:43:34.818Z,3.80
2017-10-31T07:46:01.311Z,3.63
2017-10-31T07:48:27.873Z,3.30
2017-10-31T07:50:54.526Z,3.10
2017-10-31T07:53:20.961Z,3.50
2017-10-31T07:55:48.336Z,3.30
2017-10-31T07:58:14.862Z,2.73
2017-10-31T08:00:41.809Z,2.80
2017-10-31T08:03:08.440Z,3.30
2017-10-31T08:05:34.935Z,3.20
2017-10-31T08:08:01.418Z,2.97
2017-10-31T08:10:28.051Z,3.30
2017-10-31T08:12:54.489Z,2.70
2017-10-31T08:15:20.932Z,3.03
2017-10-31T08:17:47.247Z,3.10
2017-10-31T08:20:13.769Z,2.97
2017-10-31T08:22:40.127Z,2.87
2017-10-31T08:25:06.558Z,2.63
2017-10-31T08:27:33.410Z,3.23
2017-10-31T08:29:59.866Z,3.30
2017-10-31T08:32:26.686Z,3.50
2017-10-31T08:34:53.256Z,3.20
2017-10-31T08:37:19.613Z,3.13
2017-10-31T08:39:46.055Z,3.17
2017-10-31T08:42:12.732Z,2.77
2017-10-31T08:44:39.162Z,3.53
2017-10-31T08:47:05.605Z,2.73
2017-10-31T08:49:31.968Z,2.93
2017-10-31T08:51:58.684Z,3.23
2017-10-31T08:54:25.073Z,3.60
2017-10-31T08:56:51.525Z,2.87
2017-10-31T08:59:18.078Z,3.10
2017-10-31T09:01:44.487Z,3.60
2017-10-31T09:04:11.049Z,3.00
2017-10-31T09:06:37.507Z,2.80
2017-10-31T09:09:04.171Z,3.60
2017-10-31T09:11:30.668Z,2.83
2017-10-31T09:13:57.102Z,3.00
2017-10-31T09:16:23.939Z,2.80
2017-10-31T09:18:50.374Z,3.10
2017-10-31T09:21:16.785Z,3.57
2017-10-31T09:23:43.661Z,3.20
2017-10-31T09:26:10.096Z,3.00
2017-10-31T09:28:36.523Z,2.73
2017-10-31T09:31:03.161Z,2.40
2017-10-31T09:33:29.558Z,3.20
2017-10-31T09:35:55.903Z,2.77
2017-10-31T09:38:22.364Z,2.70
2017-10-31T09:40:49.005Z,3.13
2017-10-31T09:43:15.335Z,3.13
2017-10-31T09:45:41.781Z,3.23
2017-10-31T09:48:08.511Z,3.07
2017-10-31T09:50:35.049Z,2.57
2017-10-31T09:53:01.487Z,2.83
2017-10-31T09:55:27.926Z,2.90
2017-10-31T09:57:54.352Z,3.30
2017-10-31T10:00:21.103Z,2.83
2017-10-31T10:02:47.632Z,3.30
2017-10-31T10:05:13.959Z,2.80
2017-10-31T10:07:40.500Z,2.60
2017-10-31T10:10:06.936Z,2.67
2017-10-31T10:12:33.474Z,2.83
2017-10-31T10:14:59.910Z,3.77
2017-10-31T10:17:26.616Z,3.30
2017-10-31T10:19:53.802Z,3.00
2017-10-31T10:22:20.337Z,3.20
2017-10-31T10:24:46.773Z,3.27
2017-10-31T10:27:13.208Z,3.50
2017-10-31T10:29:39.644Z,3.30
2017-10-31T10:32:06.180Z,3.57
2017-10-31T10:34:33.048Z,3.00
2017-10-31T10:37:00.073Z,3.63
2017-10-31T10:39:26.693Z,4.17
2017-10-31T10:41:53.251Z,4.50
2017-10-31T10:44:19.692Z,3.37
2017-10-31T10:46:46.639Z,4.60
2017-10-31T10:49:13.066Z,3.47
2017-10-31T10:51:39.502Z,3.77
2017-10-31T10:54:06.045Z,3.70
2017-10-31T10:56:32.479Z,3.83
2017-10-31T10:58:58.907Z,3.10
2017-10-31T11:01:25.569Z,3.53
2017-10-31T11:03:51.980Z,4.27
2017-10-31T11:06:18.417Z,4.07
2017-10-31T11:08:45.268Z,3.80
2017-10-31T11:11:11.732Z,3.57
2017-10-31T11:13:38.217Z,2.90
2017-10-31T11:16:04.655Z,2.60
2017-10-31T11:18:31.100Z,3.10
2017-10-31T11:20:57.639Z,2.37
2017-10-31T11:23:24.388Z,2.70
2017-10-31T11:25:50.817Z,3.20
2017-10-31T11:28:17.252Z,2.40
2017-10-31T11:30:44.104Z,2.87
2017-10-31T11:33:10.497Z,3.00
2017-10-31T11:35:36.964Z,2.50
2017-10-31T11:38:03.675Z,3.37
2017-10-31T11:40:30.037Z,3.37
2017-10-31T11:42:56.676Z,3.30
2017-10-31T11:45:23.011Z,3.47
2017-10-31T11:47:49.445Z,3.50
2017-10-31T11:50:15.881Z,3.13
2017-10-31T11:52:42.315Z,3.50
2017-10-31T11:55:08.776Z,3.80
2017-10-31T11:57:35.219Z,3.30
2017-10-31T12:00:01.627Z,3.60
2017-10-31T12:02:27.949Z,3.83
2017-10-31T12:04:54.494Z,3.93
2017-10-31T12:07:20.920Z,3.53
2017-10-31T12:09:47.679Z,4.17
2017-10-31T12:12:14.175Z,3.63
2017-10-31T12:14:40.941Z,3.77
2017-10-31T12:17:07.310Z,3.87
2017-10-31T12:19:33.820Z,3.57
2017-10-31T12:22:00.862Z,3.20
2017-10-31T12:24:27.231Z,4.10
2017-10-31T12:26:53.632Z,3.20
2017-10-31T12:29:20.065Z,3.63
2017-10-31T12:31:47.009Z,3.43
2017-10-31T12:34:13.451Z,3.40
2017-10-31T12:36:40.800Z,4.20
2017-10-31T12:39:07.235Z,4.23
2017-10-31T12:41:33.671Z,4.10
2017-10-31T12:44:00.019Z,4.33
2017-10-31T12:46:26.436Z,3.67
2017-10-31T12:48:52.871Z,3.33
2017-10-31T12:51:19.692Z,3.87
2017-10-31T12:53:46.150Z,4.50
2017-10-31T12:56:12.797Z,3.53
2017-10-31T12:58:39.225Z,3.70
2017-10-31T13:01:05.968Z,3.40
2017-10-31T13:03:32.829Z,3.17
2017-10-31T13:05:59.245Z,3.40
2017-10-31T13:08:25.686Z,4.40
2017-10-31T13:10:52.463Z,4.47
2017-10-31T13:13:18.934Z,3.40
2017-10-31T13:15:45.393Z,3.43
2017-10-31T13:18:12.042Z,3.50
2017-10-31T13:20:38.578Z,3.90
2017-10-31T13:23:05.004Z,3.90
2017-10-31T13:25:31.378Z,4.10
2017-10-31T13:27:57.975Z,4.00
2017-10-31T13:30:24.421Z,4.23
2017-10-31T13:32:50.948Z,4.53
2017-10-31T13:35:17.643Z,3.93
2017-10-31T13:37:44.106Z,3.93
2017-10-31T13:40:10.567Z,3.87
2017-10-31T13:42:37.272Z,3.93
2017-10-31T13:45:03.746Z,4.10
2017-10-31T13:47:30.170Z,3.93
2017-10-31T13:49:56.991Z,4.17
2017-10-31T13:52:23.552Z,4.57
2017-10-31T13:54:49.963Z,4.23
2017-10-31T13:57:16.549Z,4.20
2017-10-31T13:59:43.081Z,4.40
2017-10-31T14:02:09.598Z,4.77
2017-10-31T14:04:36.340Z,4.60
2017-10-31T14:07:02.716Z,4.10
2017-10-31T14:09:29.205Z,4.70
2017-10-31T14:11:56.473Z,4.40
2017-10-31T14:14:23.106Z,5.10
2017-10-31T14:16:50.051Z,4.07
2017-10-31T14:19:17.350Z,4.33
2017-10-31T14:21:44.047Z,4.60
2017-10-31T14:24:10.795Z,5.20
2017-10-31T14:26:37.427Z,5.80
2017-10-31T14:29:04.782Z,5.60
2017-10-31T14:31:31.219Z,5.20
2017-10-31T14:33:57.959Z,5.73
2017-10-31T14:36:24.710Z,5.20
2017-10-31T14:38:51.223Z,4.77
2017-10-31T14:41:18.084Z,5.13
2017-10-31T14:43:44.766Z,5.67
2017-10-31T14:46:11.157Z,5.10
2017-10-31T14:48:37.890Z,4.60
2017-10-31T14:51:05.476Z,4.77
2017-10-31T14:53:31.998Z,5.23
2017-10-31T14:55:58.947Z,5.13
2017-10-31T14:58:25.478Z,5.20
2017-10-31T15:00:51.921Z,5.60
2017-10-31T15:03:19.070Z,5.40
2017-10-31T15:05:46.330Z,5.90
2017-10-31T15:08:12.724Z,5.30
2017-10-31T15:10:39.192Z,5.57
2017-10-31T15:13:06.201Z,5.60
2017-10-31T15:15:32.828Z,5.30
2017-10-31T15:17:59.271Z,5.53
2017-10-31T15:20:26.885Z,5.47
2017-10-31T15:22:53.317Z,5.43
2017-10-31T15:25:19.744Z,4.83
2017-10-31T15:27:46.589Z,5.90
2017-10-31T15:30:13.028Z,5.60
2017-10-31T15:32:39.415Z,5.27
2017-10-31T15:35:06.185Z,5.20
2017-10-31T15:37:32.633Z,5.50
2017-10-31T15:39:59.102Z,5.27
2017-10-31T15:42:25.962Z,5.50
2017-10-31T15:44:52.348Z,4.80
2017-10-31T15:47:18.886Z,4.60
2017-10-31T15:49:45.288Z,4.90
2017-10-31T15:52:11.764Z,4.80
2017-10-31T15:54:38.190Z,5.83
2017-10-31T15:57:04.941Z,6.27
2017-10-31T15:59:31.306Z,5.67
2017-10-31T16:01:57.800Z,5.97
2017-10-31T16:04:24.236Z,5.80
2017-10-31T16:06:50.670Z,6.80
2017-10-31T16:09:17.105Z,8.83
2017-10-31T16:11:43.540Z,6.17
2017-10-31T16:14:09.860Z,7.23
2017-10-31T16:16:36.306Z,11.03
2017-10-31T16:19:02.741Z,10.93
2017-10-31T16:21:29.184Z,8.83
2017-10-31T16:23:55.715Z,8.23
2017-10-31T16:26:22.149Z,8.40
2017-10-31T16:28:48.538Z,11.47
2017-10-31T16:31:15.005Z,12.97
2017-10-31T16:33:41.648Z,10.47
2017-10-31T16:36:08.102Z,9.07
2017-10-31T16:38:34.635Z,9.37
2017-10-31T16:41:01.065Z,13.30
2017-10-31T16:43:27.499Z,8.70
2017-10-31T16:45:54.445Z,8.60
2017-10-31T16:48:21.563Z,10.00
2017-10-31T16:50:48.245Z,10.50
2017-10-31T16:53:14.678Z,8.90
2017-10-31T16:55:41.104Z,8.47
2017-10-31T16:58:07.540Z,9.77
2017-10-31T17:00:34.085Z,7.57
2017-10-31T17:03:00.455Z,7.50
2017-10-31T17:05:26.945Z,8.50
2017-10-31T17:07:54.108Z,8.00
2017-10-31T17:10:20.570Z,7.87
2017-10-31T17:12:47.077Z,7.30
2017-10-31T17:15:13.511Z,7.43
2017-10-31T17:17:40.178Z,7.53
2017-10-31T17:20:06.578Z,7.13
2017-10-31T17:22:33.021Z,7.13
2017-10-31T17:24:59.450Z,7.10
2017-10-31T17:27:25.815Z,9.40
2017-10-31T17:29:52.214Z,8.23
2017-10-31T17:32:18.649Z,7.73
2017-10-31T17:34:45.195Z,6.50
2017-10-31T17:37:11.621Z,6.77
2017-10-31T17:39:38.055Z,5.90
2017-10-31T17:42:04.491Z,6.00
2017-10-31T17:44:30.934Z,5.73
2017-10-31T17:46:57.369Z,5.23
2017-10-31T17:49:23.803Z,5.60
2017-10-31T17:51:50.195Z,9.00
2017-10-31T17:54:16.661Z,6.00
2017-10-31T17:56:43.202Z,6.00
2017-10-31T17:59:09.635Z,6.50
2017-10-31T18:01:36.070Z,7.00
2017-10-31T18:04:02.709Z,7.20
2017-10-31T18:06:29.152Z,6.90
2017-10-31T18:08:55.580Z,7.53
2017-10-31T18:11:22.442Z,7.70
2017-10-31T18:13:48.973Z,6.73
2017-10-31T18:16:15.806Z,7.63
2017-10-31T18:18:42.473Z,7.83
2017-10-31T18:21:08.914Z,7.67
2017-10-31T18:23:35.246Z,9.20
2017-10-31T18:26:01.666Z,8.50
2017-10-31T18:28:28.527Z,8.70
2017-10-31T18:30:55.035Z,8.47
2017-10-31T18:33:21.461Z,8.33
2017-10-31T18:35:48.325Z,7.90
2017-10-31T18:38:14.850Z,8.20
2017-10-31T18:40:41.379Z,7.83
2017-10-31T18:43:07.780Z,7.97
2017-10-31T18:48:05.089Z,8.33
2017-10-31T18:50:31.473Z,7.33
2017-10-31T18:52:57.968Z,8.63
2017-10-31T18:55:24.399Z,13.77
2017-10-31T18:57:51.235Z,12.77
2017-10-31T19:00:17.675Z,14.00
2017-10-31T19:02:44.105Z,12.43
2017-10-31T19:05:10.963Z,11.70
2017-10-31T19:07:37.385Z,11.13
2017-10-31T19:10:03.719Z,11.27
2017-10-31T19:12:30.160Z,10.77
2017-10-31T19:14:56.799Z,11.60
2017-10-31T19:17:23.164Z,11.37
2017-10-31T19:19:49.659Z,12.13
2017-10-31T19:22:16.301Z,12.07
2017-10-31T19:24:42.735Z,17.37
2017-10-31T19:27:09.169Z,13.83
2017-10-31T19:29:36.054Z,12.03
2017-10-31T19:32:02.559Z,12.63
2017-10-31T19:34:28.989Z,12.60
2017-10-31T19:36:55.767Z,12.70
2017-10-31T19:39:22.231Z,10.70
2017-10-31T19:41:48.699Z,12.13
2017-10-31T19:44:15.785Z,7.80
2017-10-31T19:46:42.293Z,7.50
2017-10-31T19:49:08.728Z,7.40
2017-10-31T19:51:35.124Z,6.93
2017-10-31T19:54:01.796Z,6.83
2017-10-31T19:56:28.331Z,6.80
2017-10-31T19:58:55.176Z,7.13
2017-10-31T20:01:21.683Z,6.90
2017-10-31T20:03:48.155Z,7.07
2017-10-31T20:06:17.456Z,6.93
2017-10-31T20:08:44.210Z,8.87
2017-10-31T20:11:10.596Z,8.47
2017-10-31T20:16:11.486Z,7.73
2017-10-31T20:18:37.814Z,8.23
2017-10-31T20:21:04.214Z,7.50
2017-10-31T20:23:30.801Z,7.17
2017-10-31T20:25:57.220Z,6.70
2017-10-31T20:28:23.664Z,6.60
2017-10-31T20:30:50.295Z,7.53
2017-10-31T20:33:16.730Z,6.77
2017-10-31T20:35:43.164Z,6.83
2017-10-31T20:38:10.008Z,6.07
2017-10-31T20:40:37.469Z,6.50
2017-10-31T20:43:03.920Z,6.53
2017-10-31T20:45:30.439Z,5.57
2017-10-31T20:47:57.219Z,5.33
2017-10-31T20:50:23.679Z,6.20
2017-10-31T20:52:50.196Z,5.90
2017-10-31T20:55:16.709Z,5.20
2017-10-31T20:57:43.129Z,5.60
2017-10-31T21:00:09.680Z,4.00
2017-10-31T21:02:36.100Z,5.30
2017-10-31T21:05:02.635Z,4.93
2017-10-31T21:07:29.068Z,4.67
2017-10-31T21:09:55.511Z,4.67
2017-10-31T21:12:21.937Z,4.73
2017-10-31T21:14:48.374Z,4.70
2017-10-31T21:17:14.810Z,4.73
2017-10-31T21:19:41.248Z,4.27
2017-10-31T21:22:07.689Z,4.17
2017-10-31T21:24:34.042Z,4.40
2017-10-31T21:27:00.556Z,4.40
2017-10-31T21:29:26.918Z,4.40
2017-10-31T21:31:53.414Z,4.20
2017-10-31T21:34:19.849Z,4.20
2017-10-31T21:36:46.289Z,4.50
2017-10-31T21:39:13.367Z,4.80
2017-10-31T21:41:39.703Z,4.40
2017-10-31T21:44:06.212Z,4.40
2017-10-31T21:46:32.638Z,4.80
2017-10-31T21:48:59.029Z,4.80
2017-10-31T21:51:25.507Z,4.50
2017-10-31T21:53:51.951Z,4.00
2017-10-31T21:56:19.092Z,4.53
2017-10-31T21:58:45.527Z,4.20
2017-10-31T22:01:11.962Z,4.23
2017-10-31T22:03:38.397Z,4.67
2017-10-31T22:06:04.836Z,5.00
2017-10-31T22:08:31.219Z,4.70
2017-10-31T22:10:57.554Z,4.30
2017-10-31T22:13:24.861Z,5.30
2017-10-31T22:15:51.219Z,4.30
2017-10-31T22:18:17.622Z,4.90
2017-10-31T22:20:44.075Z,4.27
2017-10-31T22:23:10.602Z,4.50
2017-10-31T22:25:36.924Z,4.83
2017-10-31T22:28:03.379Z,5.13
2017-10-31T22:30:30.510Z,6.00
2017-10-31T22:32:56.947Z,5.40
2017-10-31T22:35:23.392Z,4.70
2017-10-31T22:37:49.813Z,4.37
2017-10-31T22:40:16.251Z,4.00
2017-10-31T22:42:42.692Z,4.97
2017-10-31T22:45:09.116Z,4.67
2017-10-31T22:47:36.281Z,4.43
2017-10-31T22:50:02.704Z,4.20
2017-10-31T22:52:29.138Z,4.30
2017-10-31T22:54:55.506Z,4.43
2017-10-31T22:57:21.928Z,4.43
2017-10-31T22:59:48.274Z,4.43
2017-10-31T23:02:14.641Z,4.47
2017-10-31T23:04:41.935Z,4.30
2017-10-31T23:07:08.383Z,4.67
2017-10-31T23:09:34.693Z,4.63
2017-10-31T23:12:01.136Z,4.93
2017-10-31T23:14:27.562Z,4.90
2017-10-31T23:16:53.998Z,5.27
2017-10-31T23:19:20.432Z,4.97
2017-10-31T23:21:47.694Z,4.40
2017-10-31T23:24:14.120Z,4.80
2017-10-31T23:26:40.556Z,4.90
2017-10-31T23:29:06.989Z,4.53
2017-10-31T23:31:33.359Z,5.07
2017-10-31T23:33:59.711Z,4.60
2017-10-31T23:36:26.176Z,4.80
2017-10-31T23:38:53.316Z,5.00
2017-10-31T23:41:19.778Z,4.47
2017-10-31T23:43:46.212Z,4.63
2017-10-31T23:46:12.648Z,5.43
2017-10-31T23:48:39.082Z,4.50
2017-10-31T23:51:05.525Z,4.93
2017-10-31T23:53:31.951Z,4.83
2017-10-31T23:55:59.140Z,5.03
2017-10-31T23:58:25.537Z,5.13
